sensor_id;sensor_type;location;lat;lon;timestamp;P1;durP1;ratioP1;P2;durP2;ratioP2
19727;SDS011;10015;52.530;13.390;2023-07-31T00:00:28;3.40;;;1.30;;
19727;SDS011;10015;52.530;13.390;2023-07-31T00:02:54;2.30;;;1.27;;
19727;SDS011;10015;52.530;13.390;2023-07-31T00:05:20;1.50;;;1.10;;
19727;SDS011;10015;52.530;13.390;2023-07-31T00:07:47;3.43;;;1.33;;
19727;SDS011;10015;52.530;13.390;2023-07-31T00:10:13;1.53;;;0.90;;
19727;SDS011;10015;52.530;13.390;2023-07-31T00:12:39;3.13;;;1.00;;
19727;SDS011;10015;52.530;13.390;2023-07-31T00:15:09;3.20;;;1.10;;
19727;SDS011;10015;52.530;13.390;2023-07-31T00:17:35;2.87;;;1.10;;
19727;SDS011;10015;52.530;13.390;2023-07-31T00:20:02;3.53;;;1.20;;
19727;SDS011;10015;52.530;13.390;2023-07-31T00:22:28;3.97;;;1.30;;
19727;SDS011;10015;52.530;13.390;2023-07-31T00:24:55;1.77;;;1.07;;
19727;SDS011;10015;52.530;13.390;2023-07-31T00:27:22;2.00;;;1.07;;
19727;SDS011;10015;52.530;13.390;2023-07-31T00:29:49;2.03;;;1.00;;
19727;SDS011;10015;52.530;13.390;2023-07-31T00:32:15;2.60;;;1.20;;
19727;SDS011;10015;52.530;13.390;2023-07-31T00:34:41;2.13;;;1.10;;
19727;SDS011;10015;52.530;13.390;2023-07-31T00:37:07;3.73;;;1.20;;
19727;SDS011;10015;52.530;13.390;2023-07-31T00:39:34;2.27;;;0.90;;
19727;SDS011;10015;52.530;13.390;2023-07-31T00:42:01;2.90;;;1.10;;
19727;SDS011;10015;52.530;13.390;2023-07-31T00:44:27;1.80;;;1.20;;
19727;SDS011;10015;52.530;13.390;2023-07-31T00:46:53;3.83;;;1.50;;
19727;SDS011;10015;52.530;13.390;2023-07-31T00:49:20;2.83;;;1.47;;
19727;SDS011;10015;52.530;13.390;2023-07-31T00:51:48;2.43;;;1.30;;
19727;SDS011;10015;52.530;13.390;2023-07-31T00:54:14;3.97;;;1.20;;
19727;SDS011;10015;52.530;13.390;2023-07-31T00:56:40;3.77;;;1.33;;
19727;SDS011;10015;52.530;13.390;2023-07-31T00:59:10;2.83;;;1.10;;
19727;SDS011;10015;52.530;13.390;2023-07-31T01:01:36;2.83;;;1.33;;
19727;SDS011;10015;52.530;13.390;2023-07-31T01:04:02;2.53;;;1.40;;
19727;SDS011;10015;52.530;13.390;2023-07-31T01:09:32;3.20;;;1.50;;
19727;SDS011;10015;52.530;13.390;2023-07-31T01:12:11;4.43;;;1.37;;
19727;SDS011;10015;52.530;13.390;2023-07-31T01:14:40;8.70;;;1.70;;
19727;SDS011;10015;52.530;13.390;2023-07-31T01:17:06;1.87;;;1.30;;
19727;SDS011;10015;52.530;13.390;2023-07-31T01:19:32;4.10;;;1.30;;
19727;SDS011;10015;52.530;13.390;2023-07-31T01:27:51;3.23;;;1.20;;
19727;SDS011;10015;52.530;13.390;2023-07-31T01:30:25;3.93;;;1.60;;
19727;SDS011;10015;52.530;13.390;2023-07-31T01:32:55;2.73;;;1.53;;
19727;SDS011;10015;52.530;13.390;2023-07-31T01:35:22;2.13;;;1.30;;
19727;SDS011;10015;52.530;13.390;2023-07-31T01:37:49;2.63;;;1.33;;
19727;SDS011;10015;52.530;13.390;2023-07-31T01:40:19;2.47;;;1.53;;
19727;SDS011;10015;52.530;13.390;2023-07-31T01:42:45;2.20;;;1.33;;
19727;SDS011;10015;52.530;13.390;2023-07-31T01:45:11;2.20;;;1.23;;
19727;SDS011;10015;52.530;13.390;2023-07-31T01:47:37;3.47;;;1.57;;
19727;SDS011;10015;52.530;13.390;2023-07-31T01:50:03;2.90;;;1.43;;
19727;SDS011;10015;52.530;13.390;2023-07-31T01:52:29;1.77;;;1.20;;
19727;SDS011;10015;52.530;13.390;2023-07-31T01:54:55;2.53;;;1.83;;
19727;SDS011;10015;52.530;13.390;2023-07-31T01:57:21;2.60;;;1.30;;
19727;SDS011;10015;52.530;13.390;2023-07-31T01:59:47;1.93;;;1.30;;
19727;SDS011;10015;52.530;13.390;2023-07-31T02:02:13;2.17;;;1.33;;
19727;SDS011;10015;52.530;13.390;2023-07-31T02:04:39;6.50;;;1.40;;
19727;SDS011;10015;52.530;13.390;2023-07-31T02:07:08;1.97;;;1.20;;
19727;SDS011;10015;52.530;13.390;2023-07-31T02:09:34;1.97;;;1.17;;
19727;SDS011;10015;52.530;13.390;2023-07-31T02:12:01;1.80;;;1.40;;
19727;SDS011;10015;52.530;13.390;2023-07-31T02:14:27;4.20;;;1.47;;
19727;SDS011;10015;52.530;13.390;2023-07-31T02:16:53;2.37;;;1.20;;
19727;SDS011;10015;52.530;13.390;2023-07-31T02:19:19;3.03;;;1.27;;
19727;SDS011;10015;52.530;13.390;2023-07-31T02:21:45;3.90;;;1.30;;
19727;SDS011;10015;52.530;13.390;2023-07-31T02:24:10;4.17;;;1.60;;
19727;SDS011;10015;52.530;13.390;2023-07-31T02:26:37;3.03;;;1.30;;
19727;SDS011;10015;52.530;13.390;2023-07-31T02:29:03;3.20;;;1.40;;
19727;SDS011;10015;52.530;13.390;2023-07-31T02:31:29;3.93;;;1.77;;
19727;SDS011;10015;52.530;13.390;2023-07-31T02:33:54;4.37;;;1.70;;
19727;SDS011;10015;52.530;13.390;2023-07-31T02:36:20;3.60;;;1.73;;
19727;SDS011;10015;52.530;13.390;2023-07-31T02:38:46;3.47;;;1.60;;
19727;SDS011;10015;52.530;13.390;2023-07-31T02:41:12;3.07;;;1.60;;
19727;SDS011;10015;52.530;13.390;2023-07-31T02:43:38;2.60;;;1.43;;
19727;SDS011;10015;52.530;13.390;2023-07-31T02:46:04;3.07;;;1.47;;
19727;SDS011;10015;52.530;13.390;2023-07-31T02:48:30;4.60;;;1.60;;
19727;SDS011;10015;52.530;13.390;2023-07-31T02:50:56;3.50;;;1.60;;
19727;SDS011;10015;52.530;13.390;2023-07-31T02:53:22;6.93;;;2.10;;
19727;SDS011;10015;52.530;13.390;2023-07-31T02:55:48;1.50;;;1.40;;
19727;SDS011;10015;52.530;13.390;2023-07-31T02:58:14;3.57;;;2.20;;
19727;SDS011;10015;52.530;13.390;2023-07-31T03:00:43;4.83;;;2.10;;
19727;SDS011;10015;52.530;13.390;2023-07-31T03:03:10;3.37;;;2.10;;
19727;SDS011;10015;52.530;13.390;2023-07-31T03:05:36;3.70;;;2.10;;
19727;SDS011;10015;52.530;13.390;2023-07-31T03:08:02;3.70;;;2.10;;
19727;SDS011;10015;52.530;13.390;2023-07-31T03:10:29;3.47;;;1.97;;
19727;SDS011;10015;52.530;13.390;2023-07-31T03:12:55;3.37;;;2.20;;
19727;SDS011;10015;52.530;13.390;2023-07-31T03:15:21;3.53;;;2.07;;
19727;SDS011;10015;52.530;13.390;2023-07-31T03:17:47;5.53;;;2.47;;
19727;SDS011;10015;52.530;13.390;2023-07-31T03:20:13;5.10;;;2.07;;
19727;SDS011;10015;52.530;13.390;2023-07-31T03:22:39;4.47;;;2.80;;
19727;SDS011;10015;52.530;13.390;2023-07-31T03:25:05;4.33;;;2.40;;
19727;SDS011;10015;52.530;13.390;2023-07-31T03:27:31;4.40;;;2.10;;
19727;SDS011;10015;52.530;13.390;2023-07-31T03:29:59;5.97;;;2.20;;
19727;SDS011;10015;52.530;13.390;2023-07-31T03:32:26;6.17;;;1.93;;
19727;SDS011;10015;52.530;13.390;2023-07-31T03:34:52;5.43;;;2.47;;
19727;SDS011;10015;52.530;13.390;2023-07-31T03:37:18;6.17;;;2.60;;
19727;SDS011;10015;52.530;13.390;2023-07-31T03:39:44;5.53;;;2.60;;
19727;SDS011;10015;52.530;13.390;2023-07-31T03:42:10;4.83;;;2.40;;
19727;SDS011;10015;52.530;13.390;2023-07-31T03:44:36;7.07;;;2.60;;
19727;SDS011;10015;52.530;13.390;2023-07-31T03:47:04;5.10;;;2.60;;
19727;SDS011;10015;52.530;13.390;2023-07-31T03:49:30;7.43;;;2.77;;
19727;SDS011;10015;52.530;13.390;2023-07-31T03:51:56;6.43;;;2.67;;
19727;SDS011;10015;52.530;13.390;2023-07-31T03:54:22;4.00;;;2.43;;
19727;SDS011;10015;52.530;13.390;2023-07-31T03:56:48;3.67;;;2.53;;
19727;SDS011;10015;52.530;13.390;2023-07-31T03:59:14;6.23;;;2.47;;
19727;SDS011;10015;52.530;13.390;2023-07-31T04:01:40;4.03;;;2.50;;
19727;SDS011;10015;52.530;13.390;2023-07-31T04:04:06;4.10;;;2.40;;
19727;SDS011;10015;52.530;13.390;2023-07-31T04:06:32;4.57;;;2.47;;
19727;SDS011;10015;52.530;13.390;2023-07-31T04:08:58;7.60;;;3.70;;
19727;SDS011;10015;52.530;13.390;2023-07-31T04:11:23;3.87;;;2.50;;
19727;SDS011;10015;52.530;13.390;2023-07-31T04:13:49;6.40;;;2.50;;
19727;SDS011;10015;52.530;13.390;2023-07-31T04:16:15;9.13;;;2.67;;
19727;SDS011;10015;52.530;13.390;2023-07-31T04:18:41;8.03;;;2.60;;
19727;SDS011;10015;52.530;13.390;2023-07-31T04:21:07;5.70;;;2.40;;
19727;SDS011;10015;52.530;13.390;2023-07-31T04:23:33;2.80;;;2.30;;
19727;SDS011;10015;52.530;13.390;2023-07-31T04:25:59;5.23;;;2.63;;
19727;SDS011;10015;52.530;13.390;2023-07-31T04:28:25;3.40;;;2.37;;
19727;SDS011;10015;52.530;13.390;2023-07-31T04:30:51;5.90;;;2.63;;
19727;SDS011;10015;52.530;13.390;2023-07-31T04:33:18;2.83;;;2.13;;
19727;SDS011;10015;52.530;13.390;2023-07-31T04:35:50;4.00;;;2.30;;
19727;SDS011;10015;52.530;13.390;2023-07-31T04:38:20;3.47;;;2.33;;
19727;SDS011;10015;52.530;13.390;2023-07-31T04:40:46;4.00;;;2.20;;
19727;SDS011;10015;52.530;13.390;2023-07-31T04:43:12;4.87;;;2.70;;
19727;SDS011;10015;52.530;13.390;2023-07-31T04:45:38;4.23;;;2.60;;
19727;SDS011;10015;52.530;13.390;2023-07-31T04:48:04;6.57;;;2.93;;
19727;SDS011;10015;52.530;13.390;2023-07-31T04:50:30;3.23;;;2.03;;
19727;SDS011;10015;52.530;13.390;2023-07-31T04:52:56;4.27;;;2.50;;
19727;SDS011;10015;52.530;13.390;2023-07-31T04:55:23;5.37;;;2.40;;
19727;SDS011;10015;52.530;13.390;2023-07-31T04:57:49;5.10;;;2.30;;
19727;SDS011;10015;52.530;13.390;2023-07-31T05:00:15;4.03;;;2.50;;
19727;SDS011;10015;52.530;13.390;2023-07-31T05:02:41;8.37;;;2.60;;
19727;SDS011;10015;52.530;13.390;2023-07-31T05:05:07;6.93;;;2.70;;
19727;SDS011;10015;52.530;13.390;2023-07-31T05:07:33;6.33;;;2.40;;
19727;SDS011;10015;52.530;13.390;2023-07-31T05:09:59;4.93;;;2.50;;
19727;SDS011;10015;52.530;13.390;2023-07-31T05:12:25;4.93;;;2.60;;
19727;SDS011;10015;52.530;13.390;2023-07-31T05:14:51;5.10;;;2.40;;
19727;SDS011;10015;52.530;13.390;2023-07-31T05:17:17;4.37;;;2.10;;
19727;SDS011;10015;52.530;13.390;2023-07-31T05:19:43;5.73;;;2.40;;
19727;SDS011;10015;52.530;13.390;2023-07-31T05:22:09;6.67;;;2.90;;
19727;SDS011;10015;52.530;13.390;2023-07-31T05:24:35;4.67;;;2.20;;
19727;SDS011;10015;52.530;13.390;2023-07-31T05:27:01;5.23;;;2.70;;
19727;SDS011;10015;52.530;13.390;2023-07-31T05:29:27;5.53;;;2.60;;
19727;SDS011;10015;52.530;13.390;2023-07-31T05:31:53;3.50;;;2.30;;
19727;SDS011;10015;52.530;13.390;2023-07-31T05:34:18;5.40;;;2.50;;
19727;SDS011;10015;52.530;13.390;2023-07-31T05:36:44;7.53;;;2.47;;
19727;SDS011;10015;52.530;13.390;2023-07-31T05:39:10;5.57;;;2.57;;
19727;SDS011;10015;52.530;13.390;2023-07-31T05:41:36;4.23;;;2.57;;
19727;SDS011;10015;52.530;13.390;2023-07-31T05:44:02;6.33;;;3.00;;
19727;SDS011;10015;52.530;13.390;2023-07-31T05:46:28;3.83;;;2.30;;
19727;SDS011;10015;52.530;13.390;2023-07-31T05:48:54;2.50;;;1.97;;
19727;SDS011;10015;52.530;13.390;2023-07-31T05:51:20;4.63;;;2.30;;
19727;SDS011;10015;52.530;13.390;2023-07-31T05:53:46;6.10;;;2.67;;
19727;SDS011;10015;52.530;13.390;2023-07-31T05:56:12;5.57;;;2.40;;
19727;SDS011;10015;52.530;13.390;2023-07-31T05:58:38;4.43;;;2.13;;
19727;SDS011;10015;52.530;13.390;2023-07-31T06:01:04;4.83;;;2.40;;
19727;SDS011;10015;52.530;13.390;2023-07-31T06:03:29;4.30;;;2.43;;
19727;SDS011;10015;52.530;13.390;2023-07-31T06:05:55;4.40;;;2.60;;
19727;SDS011;10015;52.530;13.390;2023-07-31T06:08:21;4.03;;;2.30;;
19727;SDS011;10015;52.530;13.390;2023-07-31T06:10:47;5.63;;;2.63;;
19727;SDS011;10015;52.530;13.390;2023-07-31T06:13:13;7.37;;;2.70;;
19727;SDS011;10015;52.530;13.390;2023-07-31T06:15:39;4.17;;;2.20;;
19727;SDS011;10015;52.530;13.390;2023-07-31T06:18:05;7.20;;;2.47;;
19727;SDS011;10015;52.530;13.390;2023-07-31T06:20:35;5.13;;;2.40;;
19727;SDS011;10015;52.530;13.390;2023-07-31T06:23:01;4.37;;;2.27;;
19727;SDS011;10015;52.530;13.390;2023-07-31T06:25:28;4.27;;;2.17;;
19727;SDS011;10015;52.530;13.390;2023-07-31T06:27:55;3.00;;;1.97;;
19727;SDS011;10015;52.530;13.390;2023-07-31T06:30:21;5.73;;;2.17;;
19727;SDS011;10015;52.530;13.390;2023-07-31T06:32:47;4.43;;;2.20;;
19727;SDS011;10015;52.530;13.390;2023-07-31T06:35:13;4.40;;;1.97;;
19727;SDS011;10015;52.530;13.390;2023-07-31T06:37:39;4.67;;;2.03;;
19727;SDS011;10015;52.530;13.390;2023-07-31T06:40:06;4.10;;;1.80;;
19727;SDS011;10015;52.530;13.390;2023-07-31T06:42:34;2.50;;;1.80;;
19727;SDS011;10015;52.530;13.390;2023-07-31T06:45:01;3.47;;;1.90;;
19727;SDS011;10015;52.530;13.390;2023-07-31T06:47:27;4.03;;;2.17;;
19727;SDS011;10015;52.530;13.390;2023-07-31T06:49:53;3.00;;;1.80;;
19727;SDS011;10015;52.530;13.390;2023-07-31T06:52:19;4.30;;;2.00;;
19727;SDS011;10015;52.530;13.390;2023-07-31T06:54:59;5.53;;;2.10;;
19727;SDS011;10015;52.530;13.390;2023-07-31T06:57:55;3.57;;;2.10;;
19727;SDS011;10015;52.530;13.390;2023-07-31T07:00:21;4.17;;;2.17;;
19727;SDS011;10015;52.530;13.390;2023-07-31T07:02:48;4.03;;;2.10;;
19727;SDS011;10015;52.530;13.390;2023-07-31T07:05:15;2.73;;;2.13;;
19727;SDS011;10015;52.530;13.390;2023-07-31T07:07:42;3.00;;;1.73;;
19727;SDS011;10015;52.530;13.390;2023-07-31T07:10:08;5.43;;;2.20;;
19727;SDS011;10015;52.530;13.390;2023-07-31T07:12:35;4.50;;;2.33;;
19727;SDS011;10015;52.530;13.390;2023-07-31T07:15:01;3.73;;;1.87;;
19727;SDS011;10015;52.530;13.390;2023-07-31T07:17:30;5.33;;;1.80;;
19727;SDS011;10015;52.530;13.390;2023-07-31T07:19:59;3.00;;;2.10;;
19727;SDS011;10015;52.530;13.390;2023-07-31T07:22:26;4.10;;;1.97;;
19727;SDS011;10015;52.530;13.390;2023-07-31T07:24:52;4.57;;;1.70;;
19727;SDS011;10015;52.530;13.390;2023-07-31T07:27:19;4.20;;;1.87;;
19727;SDS011;10015;52.530;13.390;2023-07-31T07:29:45;3.17;;;1.50;;
19727;SDS011;10015;52.530;13.390;2023-07-31T07:32:11;3.80;;;1.87;;
19727;SDS011;10015;52.530;13.390;2023-07-31T07:34:38;5.83;;;1.90;;
19727;SDS011;10015;52.530;13.390;2023-07-31T07:37:04;2.50;;;1.60;;
19727;SDS011;10015;52.530;13.390;2023-07-31T07:39:30;3.63;;;1.90;;
19727;SDS011;10015;52.530;13.390;2023-07-31T07:41:56;5.77;;;2.33;;
19727;SDS011;10015;52.530;13.390;2023-07-31T07:44:22;4.07;;;1.77;;
19727;SDS011;10015;52.530;13.390;2023-07-31T07:46:48;4.67;;;2.00;;
19727;SDS011;10015;52.530;13.390;2023-07-31T07:49:14;2.93;;;1.97;;
19727;SDS011;10015;52.530;13.390;2023-07-31T07:51:40;5.10;;;1.80;;
19727;SDS011;10015;52.530;13.390;2023-07-31T07:54:06;5.63;;;2.30;;
19727;SDS011;10015;52.530;13.390;2023-07-31T07:56:32;5.17;;;2.30;;
19727;SDS011;10015;52.530;13.390;2023-07-31T07:58:58;4.53;;;1.77;;
19727;SDS011;10015;52.530;13.390;2023-07-31T08:01:24;4.80;;;2.00;;
19727;SDS011;10015;52.530;13.390;2023-07-31T08:03:50;5.67;;;1.80;;
19727;SDS011;10015;52.530;13.390;2023-07-31T08:06:16;4.27;;;1.63;;
19727;SDS011;10015;52.530;13.390;2023-07-31T08:08:42;3.27;;;1.63;;
19727;SDS011;10015;52.530;13.390;2023-07-31T08:11:08;3.57;;;1.67;;
19727;SDS011;10015;52.530;13.390;2023-07-31T08:13:34;5.73;;;1.63;;
19727;SDS011;10015;52.530;13.390;2023-07-31T08:16:02;3.83;;;1.43;;
19727;SDS011;10015;52.530;13.390;2023-07-31T08:18:30;3.17;;;1.47;;
19727;SDS011;10015;52.530;13.390;2023-07-31T08:20:57;2.93;;;1.43;;
19727;SDS011;10015;52.530;13.390;2023-07-31T08:23:23;4.70;;;1.60;;
19727;SDS011;10015;52.530;13.390;2023-07-31T08:25:49;3.50;;;1.60;;
19727;SDS011;10015;52.530;13.390;2023-07-31T08:28:16;3.83;;;1.53;;
19727;SDS011;10015;52.530;13.390;2023-07-31T08:30:42;2.77;;;1.30;;
19727;SDS011;10015;52.530;13.390;2023-07-31T08:33:08;13.33;;;2.00;;
19727;SDS011;10015;52.530;13.390;2023-07-31T08:35:34;4.63;;;1.70;;
19727;SDS011;10015;52.530;13.390;2023-07-31T08:38:02;3.43;;;1.50;;
19727;SDS011;10015;52.530;13.390;2023-07-31T08:40:28;5.00;;;1.23;;
19727;SDS011;10015;52.530;13.390;2023-07-31T08:42:55;3.97;;;1.43;;
19727;SDS011;10015;52.530;13.390;2023-07-31T08:45:24;3.43;;;1.20;;
19727;SDS011;10015;52.530;13.390;2023-07-31T08:47:51;6.22;;;1.25;;
19727;SDS011;10015;52.530;13.390;2023-07-31T08:50:18;4.87;;;1.80;;
19727;SDS011;10015;52.530;13.390;2023-07-31T08:52:46;5.50;;;1.20;;
19727;SDS011;10015;52.530;13.390;2023-07-31T08:55:13;8.38;;;1.73;;
19727;SDS011;10015;52.530;13.390;2023-07-31T08:57:39;2.70;;;1.57;;
19727;SDS011;10015;52.530;13.390;2023-07-31T09:00:08;2.95;;;1.30;;
19727;SDS011;10015;52.530;13.390;2023-07-31T09:05:14;3.40;;;1.27;;
19727;SDS011;10015;52.530;13.390;2023-07-31T09:07:42;6.35;;;1.58;;
19727;SDS011;10015;52.530;13.390;2023-07-31T09:10:13;2.05;;;1.40;;
19727;SDS011;10015;52.530;13.390;2023-07-31T09:12:39;2.60;;;1.30;;
19727;SDS011;10015;52.530;13.390;2023-07-31T09:15:06;4.10;;;1.50;;
19727;SDS011;10015;52.530;13.390;2023-07-31T09:17:34;1.38;;;1.27;;
19727;SDS011;10015;52.530;13.390;2023-07-31T09:20:18;2.53;;;1.40;;
19727;SDS011;10015;52.530;13.390;2023-07-31T09:22:45;3.55;;;1.30;;
19727;SDS011;10015;52.530;13.390;2023-07-31T09:25:17;1.93;;;1.07;;
19727;SDS011;10015;52.530;13.390;2023-07-31T09:30:19;3.13;;;1.27;;
19727;SDS011;10015;52.530;13.390;2023-07-31T09:32:47;2.25;;;1.55;;
19727;SDS011;10015;52.530;13.390;2023-07-31T09:35:22;2.20;;;1.00;;
19727;SDS011;10015;52.530;13.390;2023-07-31T09:38:00;3.20;;;1.23;;
19727;SDS011;10015;52.530;13.390;2023-07-31T09:40:32;1.10;;;0.97;;
19727;SDS011;10015;52.530;13.390;2023-07-31T09:43:04;1.40;;;1.10;;
19727;SDS011;10015;52.530;13.390;2023-07-31T09:45:33;2.00;;;1.13;;
19727;SDS011;10015;52.530;13.390;2023-07-31T09:48:02;1.47;;;1.03;;
19727;SDS011;10015;52.530;13.390;2023-07-31T09:50:28;4.87;;;1.30;;
19727;SDS011;10015;52.530;13.390;2023-07-31T09:52:55;2.80;;;1.50;;
19727;SDS011;10015;52.530;13.390;2023-07-31T09:55:23;1.47;;;1.30;;
19727;SDS011;10015;52.530;13.390;2023-07-31T09:57:50;1.27;;;1.10;;
19727;SDS011;10015;52.530;13.390;2023-07-31T10:00:18;2.00;;;0.93;;
19727;SDS011;10015;52.530;13.390;2023-07-31T10:02:45;1.20;;;1.07;;
19727;SDS011;10015;52.530;13.390;2023-07-31T10:05:13;2.10;;;1.30;;
19727;SDS011;10015;52.530;13.390;2023-07-31T10:07:45;5.30;;;1.30;;
19727;SDS011;10015;52.530;13.390;2023-07-31T10:10:19;2.67;;;2.00;;
19727;SDS011;10015;52.530;13.390;2023-07-31T10:12:47;3.80;;;1.60;;
19727;SDS011;10015;52.530;13.390;2023-07-31T10:15:15;4.30;;;1.53;;
19727;SDS011;10015;52.530;13.390;2023-07-31T10:17:42;4.97;;;1.90;;
19727;SDS011;10015;52.530;13.390;2023-07-31T10:20:09;5.27;;;1.80;;
19727;SDS011;10015;52.530;13.390;2023-07-31T10:22:36;2.50;;;1.80;;
19727;SDS011;10015;52.530;13.390;2023-07-31T10:25:02;4.47;;;1.87;;
19727;SDS011;10015;52.530;13.390;2023-07-31T10:27:29;3.73;;;1.80;;
19727;SDS011;10015;52.530;13.390;2023-07-31T10:29:55;2.67;;;1.70;;
19727;SDS011;10015;52.530;13.390;2023-07-31T10:32:23;2.17;;;1.70;;
19727;SDS011;10015;52.530;13.390;2023-07-31T10:34:50;8.17;;;2.30;;
19727;SDS011;10015;52.530;13.390;2023-07-31T10:39:56;5.93;;;2.30;;
19727;SDS011;10015;52.530;13.390;2023-07-31T10:42:35;5.20;;;2.40;;
19727;SDS011;10015;52.530;13.390;2023-07-31T10:45:05;3.43;;;2.00;;
19727;SDS011;10015;52.530;13.390;2023-07-31T10:47:42;5.40;;;2.30;;
19727;SDS011;10015;52.530;13.390;2023-07-31T10:50:20;5.60;;;2.47;;
19727;SDS011;10015;52.530;13.390;2023-07-31T10:52:53;6.37;;;2.43;;
19727;SDS011;10015;52.530;13.390;2023-07-31T10:58:11;4.63;;;2.42;;
19727;SDS011;10015;52.530;13.390;2023-07-31T11:00:39;3.70;;;2.10;;
19727;SDS011;10015;52.530;13.390;2023-07-31T11:03:08;3.50;;;2.35;;
19727;SDS011;10015;52.530;13.390;2023-07-31T11:08:19;3.85;;;2.40;;
19727;SDS011;10015;52.530;13.390;2023-07-31T11:10:51;3.35;;;2.13;;
19727;SDS011;10015;52.530;13.390;2023-07-31T11:14:12;4.22;;;2.15;;
19727;SDS011;10015;52.530;13.390;2023-07-31T11:16:21;4.13;;;2.30;;
19727;SDS011;10015;52.530;13.390;2023-07-31T11:18:48;5.95;;;2.67;;
19727;SDS011;10015;52.530;13.390;2023-07-31T11:21:17;4.43;;;2.40;;
19727;SDS011;10015;52.530;13.390;2023-07-31T11:23:52;4.30;;;2.20;;
19727;SDS011;10015;52.530;13.390;2023-07-31T11:26:21;5.18;;;2.17;;
19727;SDS011;10015;52.530;13.390;2023-07-31T11:28:50;4.82;;;2.28;;
19727;SDS011;10015;52.530;13.390;2023-07-31T11:31:17;3.97;;;2.55;;
19727;SDS011;10015;52.530;13.390;2023-07-31T11:33:44;4.50;;;2.83;;
19727;SDS011;10015;52.530;13.390;2023-07-31T11:36:16;4.75;;;3.00;;
19727;SDS011;10015;52.530;13.390;2023-07-31T11:38:43;5.78;;;2.10;;
19727;SDS011;10015;52.530;13.390;2023-07-31T11:41:10;4.97;;;2.55;;
19727;SDS011;10015;52.530;13.390;2023-07-31T11:43:38;4.45;;;2.88;;
19727;SDS011;10015;52.530;13.390;2023-07-31T11:46:04;4.10;;;2.17;;
19727;SDS011;10015;52.530;13.390;2023-07-31T11:48:33;5.45;;;2.22;;
19727;SDS011;10015;52.530;13.390;2023-07-31T11:51:05;3.33;;;2.20;;
19727;SDS011;10015;52.530;13.390;2023-07-31T11:53:44;4.07;;;2.42;;
19727;SDS011;10015;52.530;13.390;2023-07-31T11:56:13;3.83;;;2.10;;
19727;SDS011;10015;52.530;13.390;2023-07-31T11:58:41;4.57;;;2.50;;
19727;SDS011;10015;52.530;13.390;2023-07-31T12:01:13;4.50;;;2.10;;
19727;SDS011;10015;52.530;13.390;2023-07-31T12:03:51;6.68;;;2.20;;
19727;SDS011;10015;52.530;13.390;2023-07-31T12:06:17;4.78;;;2.13;;
19727;SDS011;10015;52.530;13.390;2023-07-31T12:08:46;5.97;;;2.45;;
19727;SDS011;10015;52.530;13.390;2023-07-31T12:11:12;4.15;;;2.47;;
19727;SDS011;10015;52.530;13.390;2023-07-31T12:13:40;5.82;;;2.47;;
19727;SDS011;10015;52.530;13.390;2023-07-31T12:16:06;2.80;;;2.33;;
19727;SDS011;10015;52.530;13.390;2023-07-31T12:18:33;3.53;;;2.40;;
19727;SDS011;10015;52.530;13.390;2023-07-31T12:21:04;7.93;;;2.53;;
19727;SDS011;10015;52.530;13.390;2023-07-31T12:23:34;6.03;;;2.33;;
19727;SDS011;10015;52.530;13.390;2023-07-31T12:26:02;5.13;;;2.20;;
19727;SDS011;10015;52.530;13.390;2023-07-31T12:28:30;5.03;;;2.35;;
19727;SDS011;10015;52.530;13.390;2023-07-31T12:31:01;3.22;;;1.92;;
19727;SDS011;10015;52.530;13.390;2023-07-31T12:33:31;4.93;;;2.80;;
19727;SDS011;10015;52.530;13.390;2023-07-31T12:36:00;4.28;;;2.70;;
19727;SDS011;10015;52.530;13.390;2023-07-31T12:38:27;5.55;;;2.33;;
19727;SDS011;10015;52.530;13.390;2023-07-31T12:40:53;6.28;;;2.28;;
19727;SDS011;10015;52.530;13.390;2023-07-31T12:43:19;5.20;;;2.30;;
19727;SDS011;10015;52.530;13.390;2023-07-31T12:45:45;5.28;;;2.22;;
19727;SDS011;10015;52.530;13.390;2023-07-31T12:48:13;5.78;;;2.30;;
19727;SDS011;10015;52.530;13.390;2023-07-31T12:50:39;5.50;;;2.42;;
19727;SDS011;10015;52.530;13.390;2023-07-31T12:53:05;4.82;;;2.00;;
19727;SDS011;10015;52.530;13.390;2023-07-31T12:55:32;2.97;;;1.98;;
19727;SDS011;10015;52.530;13.390;2023-07-31T12:58:03;6.32;;;2.58;;
19727;SDS011;10015;52.530;13.390;2023-07-31T13:00:29;4.97;;;2.25;;
19727;SDS011;10015;52.530;13.390;2023-07-31T13:02:55;4.13;;;2.15;;
19727;SDS011;10015;52.530;13.390;2023-07-31T13:05:21;3.50;;;2.30;;
19727;SDS011;10015;52.530;13.390;2023-07-31T13:07:48;4.53;;;2.25;;
19727;SDS011;10015;52.530;13.390;2023-07-31T13:10:14;4.65;;;1.80;;
19727;SDS011;10015;52.530;13.390;2023-07-31T13:12:40;5.20;;;2.08;;
19727;SDS011;10015;52.530;13.390;2023-07-31T13:15:07;2.63;;;1.80;;
19727;SDS011;10015;52.530;13.390;2023-07-31T13:17:33;4.32;;;2.10;;
19727;SDS011;10015;52.530;13.390;2023-07-31T13:20:00;4.28;;;1.80;;
19727;SDS011;10015;52.530;13.390;2023-07-31T13:22:27;3.75;;;1.63;;
19727;SDS011;10015;52.530;13.390;2023-07-31T13:24:53;4.22;;;1.60;;
19727;SDS011;10015;52.530;13.390;2023-07-31T13:27:20;2.50;;;1.63;;
19727;SDS011;10015;52.530;13.390;2023-07-31T13:29:48;3.10;;;1.73;;
19727;SDS011;10015;52.530;13.390;2023-07-31T13:32:15;3.70;;;1.80;;
19727;SDS011;10015;52.530;13.390;2023-07-31T13:34:43;3.55;;;1.95;;
19727;SDS011;10015;52.530;13.390;2023-07-31T13:37:10;3.20;;;1.90;;
19727;SDS011;10015;52.530;13.390;2023-07-31T13:39:36;3.38;;;1.80;;
19727;SDS011;10015;52.530;13.390;2023-07-31T13:42:03;4.05;;;1.90;;
19727;SDS011;10015;52.530;13.390;2023-07-31T13:44:32;4.78;;;2.00;;
19727;SDS011;10015;52.530;13.390;2023-07-31T13:46:59;3.83;;;2.30;;
19727;SDS011;10015;52.530;13.390;2023-07-31T13:49:26;6.90;;;2.60;;
19727;SDS011;10015;52.530;13.390;2023-07-31T13:51:52;5.82;;;2.67;;
19727;SDS011;10015;52.530;13.390;2023-07-31T13:54:19;3.90;;;2.35;;
19727;SDS011;10015;52.530;13.390;2023-07-31T13:56:45;5.43;;;2.42;;
19727;SDS011;10015;52.530;13.390;2023-07-31T13:59:11;3.75;;;2.20;;
19727;SDS011;10015;52.530;13.390;2023-07-31T14:01:38;4.88;;;2.25;;
19727;SDS011;10015;52.530;13.390;2023-07-31T14:04:04;4.85;;;2.80;;
19727;SDS011;10015;52.530;13.390;2023-07-31T14:06:30;3.15;;;2.10;;
19727;SDS011;10015;52.530;13.390;2023-07-31T14:08:57;3.53;;;2.45;;
19727;SDS011;10015;52.530;13.390;2023-07-31T14:11:23;6.28;;;2.47;;
19727;SDS011;10015;52.530;13.390;2023-07-31T14:13:50;7.38;;;2.95;;
19727;SDS011;10015;52.530;13.390;2023-07-31T14:16:16;4.93;;;2.17;;
19727;SDS011;10015;52.530;13.390;2023-07-31T14:18:43;4.90;;;2.17;;
19727;SDS011;10015;52.530;13.390;2023-07-31T14:21:11;5.22;;;2.60;;
19727;SDS011;10015;52.530;13.390;2023-07-31T14:23:38;5.15;;;1.90;;
19727;SDS011;10015;52.530;13.390;2023-07-31T14:26:05;4.07;;;2.40;;
19727;SDS011;10015;52.530;13.390;2023-07-31T14:28:31;5.32;;;2.55;;
19727;SDS011;10015;52.530;13.390;2023-07-31T14:30:58;6.07;;;2.33;;
19727;SDS011;10015;52.530;13.390;2023-07-31T14:33:24;5.88;;;2.45;;
19727;SDS011;10015;52.530;13.390;2023-07-31T14:35:51;3.83;;;2.50;;
19727;SDS011;10015;52.530;13.390;2023-07-31T14:38:17;4.35;;;2.70;;
19727;SDS011;10015;52.530;13.390;2023-07-31T14:40:44;5.53;;;2.40;;
19727;SDS011;10015;52.530;13.390;2023-07-31T14:43:10;4.07;;;2.47;;
19727;SDS011;10015;52.530;13.390;2023-07-31T14:45:37;4.25;;;2.08;;
19727;SDS011;10015;52.530;13.390;2023-07-31T14:48:03;5.20;;;2.33;;
19727;SDS011;10015;52.530;13.390;2023-07-31T14:50:30;3.85;;;2.10;;
19727;SDS011;10015;52.530;13.390;2023-07-31T14:52:56;4.95;;;2.13;;
19727;SDS011;10015;52.530;13.390;2023-07-31T14:55:22;4.80;;;2.40;;